createdAt,value
2022-12-23T00:01:26.579Z,100138.97
2022-12-23T00:03:57.605Z,100144.06
2022-12-23T00:06:24.171Z,100138.94
2022-12-23T00:08:58.196Z,100138.94
2022-12-23T00:11:26.730Z,100136.41
2022-12-23T00:14:20.652Z,100146.81
2022-12-23T00:16:48.556Z,100146.75
2022-12-23T00:19:15.175Z,100148.50
2022-12-23T00:21:41.779Z,100144.84
2022-12-23T00:24:08.946Z,100136.28
2022-12-23T00:26:35.478Z,100138.88
2022-12-23T00:29:02.027Z,100124.09
2022-12-23T00:31:28.577Z,100112.00
2022-12-23T00:33:55.221Z,100107.75
2022-12-23T00:36:24.877Z,100110.03
2022-12-23T00:39:10.286Z,100108.38
2022-12-23T00:41:55.604Z,100119.56
2022-12-23T00:44:22.323Z,100114.28
2022-12-23T00:46:49.154Z,100117.66
2022-12-23T00:49:36.439Z,100117.66
2022-12-23T00:52:05.283Z,100103.81
2022-12-23T00:54:34.769Z,100082.31
2022-12-23T00:57:01.367Z,100087.41
2022-12-23T00:59:27.951Z,100098.34
2022-12-23T01:02:13.406Z,100089.63
2022-12-23T01:05:02.992Z,100089.53
2022-12-23T01:07:29.627Z,100088.63
2022-12-23T01:09:56.144Z,100084.41
2022-12-23T01:12:22.800Z,100081.53
2022-12-23T01:14:49.467Z,100072.03
2022-12-23T01:17:16.127Z,100068.50
2022-12-23T01:19:42.751Z,100066.91
2022-12-23T01:22:09.483Z,100069.34
2022-12-23T01:24:36.036Z,100083.53
2022-12-23T01:27:02.504Z,100104.84
2022-12-23T01:29:29.833Z,100111.38
2022-12-23T01:31:56.463Z,100108.59
2022-12-23T01:34:23.070Z,100098.16
2022-12-23T01:36:49.821Z,100088.88
2022-12-23T01:39:16.411Z,100091.38
2022-12-23T01:42:01.702Z,100092.19
2022-12-23T01:44:52.798Z,100084.38
2022-12-23T01:47:34.155Z,100077.31
2022-12-23T01:50:12.800Z,100077.25
2022-12-23T01:52:45.965Z,100070.38
2022-12-23T01:55:14.578Z,100065.97
2022-12-23T01:57:43.016Z,100061.53
2022-12-23T02:00:29.242Z,100058.84
2022-12-23T02:03:14.419Z,100056.16
2022-12-23T02:05:44.884Z,100044.13
2022-12-23T02:08:30.967Z,100068.69
2022-12-23T02:11:13.896Z,100079.53
2022-12-23T02:14:31.858Z,100076.06
2022-12-23T02:17:15.813Z,100082.75
2022-12-23T02:19:59.993Z,100074.09
2022-12-23T02:22:41.788Z,100069.84
2022-12-23T02:25:25.998Z,100076.53
2022-12-23T02:28:19.805Z,100063.50
2022-12-23T02:30:53.168Z,100055.69
2022-12-23T02:33:23.862Z,100050.56
2022-12-23T02:35:59.662Z,100047.25
2022-12-23T02:38:52.016Z,100055.91
2022-12-23T02:41:42.416Z,100060.88
2022-12-23T02:44:13.544Z,100055.69
2022-12-23T02:46:51.711Z,100055.66
2022-12-23T02:49:32.432Z,100046.09
2022-12-23T02:52:03.264Z,100049.31
2022-12-23T02:54:34.067Z,100041.53
2022-12-23T02:57:04.273Z,100044.13
2022-12-23T02:59:38.071Z,100048.34
2022-12-23T03:02:04.675Z,100046.63
2022-12-23T03:04:31.512Z,100051.13
2022-12-23T03:07:07.230Z,100053.75
2022-12-23T03:09:43.204Z,100055.41
2022-12-23T03:12:48.199Z,100059.84
2022-12-23T03:15:33.399Z,100056.56
2022-12-23T03:18:12.207Z,100067.63
2022-12-23T03:20:51.087Z,100063.47
2022-12-23T03:23:30.713Z,100077.75
2022-12-23T03:26:39.090Z,100073.69
2022-12-23T03:29:10.363Z,100078.72
2022-12-23T03:31:39.521Z,100073.44
2022-12-23T03:34:10.868Z,100069.94
2022-12-23T03:36:47.267Z,100055.94
2022-12-23T03:39:19.915Z,100048.09
2022-12-23T03:42:00.555Z,100030.75
2022-12-23T03:44:32.726Z,100029.22
2022-12-23T03:47:16.900Z,100025.97
2022-12-23T03:49:49.217Z,100030.28
2022-12-23T03:52:21.707Z,100031.06
2022-12-23T03:54:54.307Z,100031.84
2022-12-23T03:57:26.082Z,100036.00
2022-12-23T03:59:53.418Z,100034.41
2022-12-23T04:02:26.081Z,100038.13
2022-12-23T04:05:03.259Z,100038.97
2022-12-23T04:07:45.171Z,100042.41
2022-12-23T04:10:13.062Z,100043.47
2022-12-23T04:12:40.391Z,100053.09
2022-12-23T04:15:12.497Z,100065.03
2022-12-23T04:17:39.736Z,100045.97
2022-12-23T04:20:07.289Z,100050.06
2022-12-23T04:22:35.008Z,100049.88
2022-12-23T04:25:01.624Z,100044.63
2022-12-23T04:27:28.122Z,100047.25
2022-12-23T04:29:54.664Z,100048.91
2022-12-23T04:32:21.864Z,100038.66
2022-12-23T04:34:48.418Z,100043.75
2022-12-23T04:37:14.887Z,100041.06
2022-12-23T04:39:41.382Z,100040.16
2022-12-23T04:42:07.879Z,100042.63
2022-12-23T04:44:34.335Z,100035.78
2022-12-23T04:47:00.954Z,100036.53
2022-12-23T04:49:27.577Z,100038.09
2022-12-23T04:51:54.158Z,100036.22
2022-12-23T04:54:20.693Z,100024.94
2022-12-23T04:56:47.300Z,100018.81
2022-12-23T04:59:13.909Z,100012.72
2022-12-23T05:01:42.463Z,100002.41
2022-12-23T05:04:10.349Z,100005.81
2022-12-23T05:06:37.463Z,100004.88
2022-12-23T05:09:04.711Z,100002.25
2022-12-23T05:11:33.310Z,100004.16
2022-12-23T05:14:02.848Z,100006.78
2022-12-23T05:16:31.255Z,100001.50
2022-12-23T05:18:58.099Z,99993.69
2022-12-23T05:21:24.800Z,99988.66
2022-12-23T05:23:51.736Z,99999.88
2022-12-23T05:26:18.446Z,100000.50
2022-12-23T05:28:45.652Z,99996.88
2022-12-23T05:31:13.251Z,99996.56
2022-12-23T05:33:40.292Z,99989.56
2022-12-23T05:36:07.645Z,99978.28
2022-12-23T05:38:34.311Z,99965.47
2022-12-23T05:41:00.983Z,99957.75
2022-12-23T05:43:27.598Z,99949.13
2022-12-23T05:45:54.243Z,99940.56
2022-12-23T05:48:21.385Z,99933.56
2022-12-23T05:50:52.004Z,99924.16
2022-12-23T05:53:19.322Z,99924.06
2022-12-23T05:55:46.281Z,99931.03
2022-12-23T05:58:13.166Z,99934.41
2022-12-23T06:00:39.685Z,99930.88
2022-12-23T06:03:06.441Z,99918.84
2022-12-23T06:05:33.082Z,99932.50
2022-12-23T06:07:59.620Z,99930.75
2022-12-23T06:10:26.438Z,99933.16
2022-12-23T06:12:52.947Z,99922.81
2022-12-23T06:15:19.729Z,99912.41
2022-12-23T06:17:46.375Z,99896.13
2022-12-23T06:20:20.020Z,99901.28
2022-12-23T06:22:47.215Z,99914.09
2022-12-23T06:25:13.818Z,99909.03
2022-12-23T06:27:40.373Z,99909.91
2022-12-23T06:30:07.905Z,99911.41
2022-12-23T06:32:38.272Z,99891.00
2022-12-23T06:35:06.653Z,99897.56
2022-12-23T06:37:33.193Z,99896.66
2022-12-23T06:39:59.704Z,99898.38
2022-12-23T06:42:26.248Z,99887.16
2022-12-23T06:44:52.791Z,99893.97
2022-12-23T06:47:19.321Z,99895.66
2022-12-23T06:49:45.890Z,99899.84
2022-12-23T06:52:12.444Z,99898.84
2022-12-23T06:54:38.993Z,99889.41
2022-12-23T06:57:05.606Z,99892.78
2022-12-23T06:59:32.152Z,99900.44
2022-12-23T07:01:59.174Z,99886.59
2022-12-23T07:04:25.859Z,99889.06
2022-12-23T07:06:52.367Z,99888.22
2022-12-23T07:09:18.906Z,99867.66
2022-12-23T07:11:45.805Z,99862.53
2022-12-23T07:14:12.299Z,99863.72
2022-12-23T07:16:38.840Z,99875.56
2022-12-23T07:19:05.463Z,99877.81
2022-12-23T07:21:31.989Z,99887.22
2022-12-23T07:23:58.530Z,99893.00
2022-12-23T07:26:25.125Z,99885.38
2022-12-23T07:28:51.596Z,99891.28
2022-12-23T07:31:18.209Z,99901.34
2022-12-23T07:33:45.068Z,99903.03
2022-12-23T07:36:11.623Z,99892.88
2022-12-23T07:38:38.135Z,99896.97
2022-12-23T07:41:04.817Z,99897.69
2022-12-23T07:43:31.356Z,99876.47
2022-12-23T07:46:00.597Z,99875.50
2022-12-23T07:48:28.367Z,99880.09
2022-12-23T07:51:00.812Z,99877.53
2022-12-23T07:53:27.394Z,99871.66
2022-12-23T07:55:56.640Z,99877.69
2022-12-23T07:58:23.595Z,99885.31
2022-12-23T08:00:50.225Z,99890.34
2022-12-23T08:03:17.281Z,99889.47
2022-12-23T08:05:43.903Z,99881.84
2022-12-23T08:08:10.498Z,99880.91
2022-12-23T08:10:41.425Z,99885.31
2022-12-23T08:13:11.065Z,99885.44
2022-12-23T08:15:37.634Z,99887.25
2022-12-23T08:18:04.607Z,99891.69
2022-12-23T08:20:31.052Z,99882.38
2022-12-23T08:22:57.542Z,99880.72
2022-12-23T08:25:24.021Z,99882.63
2022-12-23T08:27:51.352Z,99883.63
2022-12-23T08:30:18.856Z,99888.00
2022-12-23T08:32:45.468Z,99898.38
2022-12-23T08:35:12.065Z,99901.94
2022-12-23T08:37:38.701Z,99895.28
2022-12-23T08:40:05.886Z,99892.00
2022-12-23T08:42:32.419Z,99898.84
2022-12-23T08:44:59.004Z,99900.63
2022-12-23T08:47:25.593Z,99879.31
2022-12-23T08:49:52.083Z,99888.81
2022-12-23T08:52:18.629Z,99875.25
2022-12-23T08:54:45.176Z,99870.22
2022-12-23T08:57:11.672Z,99872.22
2022-12-23T08:59:38.886Z,99870.66
2022-12-23T09:02:05.683Z,99867.31
2022-12-23T09:04:32.397Z,99868.06
2022-12-23T09:06:59.155Z,99871.38
2022-12-23T09:09:25.657Z,99874.88
2022-12-23T09:11:52.235Z,99871.81
2022-12-23T09:14:18.833Z,99869.56
2022-12-23T09:16:45.379Z,99871.38
2022-12-23T09:19:11.985Z,99870.72
2022-12-23T09:21:38.540Z,99867.47
2022-12-23T09:24:05.466Z,99873.59
2022-12-23T09:26:32.471Z,99878.94
2022-12-23T09:28:59.506Z,99883.31
2022-12-23T09:31:32.341Z,99892.88
2022-12-23T09:34:00.791Z,99904.16
2022-12-23T09:36:27.281Z,99908.41
2022-12-23T09:38:55.832Z,99918.72
2022-12-23T09:42:03.753Z,99931.59
2022-12-23T09:44:43.165Z,99936.00
2022-12-23T09:47:17.314Z,99949.78
2022-12-23T09:49:49.368Z,99951.50
2022-12-23T09:52:25.088Z,99948.06
2022-12-23T09:54:54.717Z,99954.13
2022-12-23T09:57:23.162Z,99950.75
2022-12-23T10:00:05.721Z,99970.31
2022-12-23T10:02:53.685Z,99962.03
2022-12-23T10:05:20.985Z,99972.38
2022-12-23T10:07:56.046Z,99966.41
2022-12-23T10:10:31.859Z,99964.81
2022-12-23T10:13:01.938Z,99963.13
2022-12-23T10:15:43.047Z,99959.84
2022-12-23T10:18:35.222Z,99955.75
2022-12-23T10:21:06.407Z,99974.75
2022-12-23T10:23:38.870Z,99981.84
2022-12-23T10:26:51.869Z,99990.53
2022-12-23T10:29:26.489Z,100012.91
2022-12-23T10:32:17.600Z,100029.31
2022-12-23T10:35:11.990Z,100062.09
2022-12-23T10:37:50.822Z,100063.13
2022-12-23T10:40:32.900Z,100081.31
2022-12-23T10:43:11.352Z,100090.84
2022-12-23T10:46:02.073Z,100096.75
2022-12-23T10:48:31.403Z,100096.03
2022-12-23T10:51:23.027Z,100082.47
2022-12-23T10:53:57.455Z,100068.72
2022-12-23T10:56:23.925Z,100056.84
2022-12-23T10:58:55.185Z,100044.00
2022-12-23T11:01:27.054Z,100045.59
2022-12-23T11:04:08.803Z,100032.97
2022-12-23T11:06:40.928Z,100032.94
2022-12-23T11:09:16.564Z,100018.34
2022-12-23T11:11:56.167Z,100017.50
2022-12-23T11:14:43.799Z,100024.59
2022-12-23T11:17:28.797Z,100024.75
2022-12-23T11:20:10.327Z,100017.88
2022-12-23T11:22:47.628Z,100019.63
2022-12-23T11:25:33.718Z,100017.09
2022-12-23T11:28:22.190Z,100019.78
2022-12-23T11:31:00.787Z,100022.44
2022-12-23T11:33:34.286Z,100042.72
2022-12-23T11:36:03.850Z,100044.78
2022-12-23T11:38:31.005Z,100053.41
2022-12-23T11:40:58.311Z,100062.91
2022-12-23T11:43:27.417Z,100063.75
2022-12-23T11:46:13.963Z,100064.59
2022-12-23T11:48:40.851Z,100056.94
2022-12-23T11:51:07.379Z,100052.69
2022-12-23T11:53:35.006Z,100041.59
2022-12-23T11:56:07.385Z,100036.41
2022-12-23T11:58:50.736Z,100028.69
2022-12-23T12:01:20.532Z,100020.13
2022-12-23T12:04:09.188Z,100003.78
2022-12-23T12:06:42.326Z,100025.56
2022-12-23T12:09:12.603Z,100025.72
2022-12-23T12:11:49.299Z,100026.56
2022-12-23T12:14:23.911Z,100013.75
2022-12-23T12:16:59.587Z,100017.41
2022-12-23T12:19:31.382Z,100034.63
2022-12-23T12:22:04.634Z,100036.47
2022-12-23T12:24:41.556Z,100037.34
2022-12-23T12:27:11.202Z,100027.16
2022-12-23T12:29:45.753Z,100034.00
2022-12-23T12:32:21.300Z,100035.91
2022-12-23T12:35:04.982Z,100030.72
2022-12-23T12:37:43.365Z,100035.91
2022-12-23T12:40:32.412Z,100036.81
2022-12-23T12:43:11.288Z,100041.19
2022-12-23T12:45:50.177Z,100031.75
2022-12-23T12:48:22.488Z,100024.00
2022-12-23T12:50:59.511Z,100024.16
2022-12-23T12:53:28.655Z,100026.78
2022-12-23T12:56:08.386Z,100020.78
2022-12-23T12:58:34.891Z,100020.78
2022-12-23T13:01:08.816Z,100023.41
2022-12-23T13:03:57.157Z,100021.72
2022-12-23T13:06:29.537Z,100016.50
2022-12-23T13:09:08.708Z,100028.56
2022-12-23T13:11:45.221Z,100017.31
2022-12-23T13:14:50.502Z,100020.78
2022-12-23T13:17:31.899Z,100036.28
2022-12-23T13:20:20.424Z,100033.63
2022-12-23T13:22:53.353Z,100015.53
2022-12-23T13:25:29.993Z,100003.47
2022-12-23T13:28:05.301Z,99993.16
2022-12-23T13:30:39.271Z,99974.25
2022-12-23T13:33:06.758Z,99971.75
2022-12-23T13:36:04.949Z,99970.09
2022-12-23T13:38:41.307Z,99968.38
2022-12-23T13:41:21.642Z,99991.66
2022-12-23T13:43:56.428Z,99989.94
2022-12-23T13:46:38.144Z,99995.16
2022-12-23T13:49:35.406Z,99981.41
2022-12-23T13:52:17.213Z,99994.44
2022-12-23T13:54:43.661Z,99990.94
2022-12-23T13:57:31.885Z,100007.31
2022-12-23T14:00:17.311Z,100008.16
2022-12-23T14:02:51.813Z,100008.13
2022-12-23T14:05:33.548Z,100008.09
2022-12-23T14:08:03.578Z,100003.78
2022-12-23T14:10:31.327Z,100013.34
2022-12-23T14:13:05.772Z,100010.78
2022-12-23T14:15:44.379Z,100017.66
2022-12-23T14:18:35.926Z,100009.06
2022-12-23T14:21:40.839Z,100007.28
2022-12-23T14:24:35.275Z,100003.81
2022-12-23T14:27:23.756Z,100002.13
2022-12-23T14:30:08.483Z,100007.31
2022-12-23T14:32:53.751Z,100008.16
2022-12-23T14:35:38.322Z,100012.44
2022-12-23T14:38:14.519Z,100017.63
2022-12-23T14:40:47.152Z,100014.16
2022-12-23T14:43:23.169Z,100021.13
2022-12-23T14:45:52.432Z,100002.97
2022-12-23T14:48:34.313Z,100003.03
2022-12-23T14:51:23.461Z,100003.06
2022-12-23T14:53:53.690Z,100004.75
2022-12-23T14:56:43.156Z,99998.75
2022-12-23T14:59:27.732Z,100017.72
2022-12-23T15:01:56.637Z,100002.13
2022-12-23T15:04:35.722Z,99991.75
2022-12-23T15:07:16.735Z,100002.13
2022-12-23T15:10:01.062Z,99986.66
2022-12-23T15:12:34.053Z,99979.66
2022-12-23T15:15:04.982Z,99977.91
2022-12-23T15:17:36.722Z,100001.13
2022-12-23T15:20:24.880Z,100004.56
2022-12-23T15:22:52.697Z,99993.38
2022-12-23T15:25:19.185Z,99991.59
2022-12-23T15:27:46.013Z,99976.13
2022-12-23T15:30:14.022Z,99987.31
2022-12-23T15:32:45.505Z,99995.91
2022-12-23T15:35:22.659Z,99985.50
2022-12-23T15:37:50.952Z,99982.94
2022-12-23T15:40:36.381Z,99982.13
2022-12-23T15:43:17.817Z,99985.50
2022-12-23T15:45:44.349Z,99988.03
2022-12-23T15:48:31.436Z,99978.50
2022-12-23T15:51:04.301Z,99974.13
2022-12-23T15:53:38.185Z,99989.63
2022-12-23T15:56:09.235Z,99982.66
2022-12-23T15:58:40.380Z,99980.94
2022-12-23T16:01:13.253Z,99981.88
2022-12-23T16:03:42.662Z,99985.34
2022-12-23T16:06:25.553Z,99979.16
2022-12-23T16:09:00.927Z,99990.34
2022-12-23T16:12:01.502Z,99979.03
2022-12-23T16:14:32.864Z,99965.31
2022-12-23T16:17:15.404Z,99942.84
2022-12-23T16:19:49.427Z,99947.06
2022-12-23T16:22:28.664Z,99945.28
2022-12-23T16:25:24.628Z,99946.16
2022-12-23T16:28:07.863Z,99942.69
2022-12-23T16:30:37.305Z,99950.31
2022-12-23T16:33:07.686Z,99945.09
2022-12-23T16:35:41.844Z,99935.50
2022-12-23T16:38:32.291Z,99931.16
2022-12-23T16:40:58.776Z,99918.25
2022-12-23T16:43:25.544Z,99909.53
2022-12-23T16:45:56.803Z,99907.88
2022-12-23T16:48:40.429Z,99901.69
2022-12-23T16:51:18.460Z,99897.34
2022-12-23T16:53:44.941Z,99877.50
2022-12-23T16:56:16.925Z,99876.72
2022-12-23T16:58:44.272Z,99882.78
2022-12-23T17:01:34.173Z,99883.72
2022-12-23T17:04:00.761Z,99886.31
2022-12-23T17:06:27.814Z,99889.00
2022-12-23T17:08:54.530Z,99897.59
2022-12-23T17:11:25.275Z,99889.84
2022-12-23T17:13:52.897Z,99901.06
2022-12-23T17:16:24.352Z,99900.16
2022-12-23T17:18:53.016Z,99895.84
2022-12-23T17:21:30.267Z,99901.06
2022-12-23T17:24:10.200Z,99902.78
2022-12-23T17:26:37.014Z,99908.75
2022-12-23T17:29:04.965Z,99909.72
2022-12-23T17:31:34.672Z,99910.59
2022-12-23T17:34:02.052Z,99915.69
2022-12-23T17:36:29.331Z,99929.44
2022-12-23T17:38:55.939Z,99932.75
2022-12-23T17:41:28.521Z,99930.06
2022-12-23T17:43:55.363Z,99917.91
2022-12-23T17:46:21.974Z,99913.53
2022-12-23T17:48:48.717Z,99898.91
2022-12-23T17:51:17.737Z,99891.09
2022-12-23T17:53:46.766Z,99877.31
2022-12-23T17:56:15.477Z,99873.06
2022-12-23T17:58:42.983Z,99865.31
2022-12-23T18:01:20.097Z,99859.25
2022-12-23T18:03:47.259Z,99867.03
2022-12-23T18:06:15.806Z,99866.13
2022-12-23T18:08:42.588Z,99857.56
2022-12-23T18:11:20.437Z,99862.72
2022-12-23T18:13:48.820Z,99872.09
2022-12-23T18:16:15.327Z,99872.06
2022-12-23T18:18:46.184Z,99866.84
2022-12-23T18:21:23.823Z,99858.28
2022-12-23T18:23:52.085Z,99853.91
2022-12-23T18:26:18.630Z,99860.81
2022-12-23T18:28:45.231Z,99854.88
2022-12-23T18:31:17.983Z,99852.25
2022-12-23T18:33:44.995Z,99856.63
2022-12-23T18:36:24.873Z,99864.34
2022-12-23T18:38:52.677Z,99857.44
2022-12-23T18:41:20.701Z,99847.09
2022-12-23T18:43:47.764Z,99842.69
2022-12-23T18:46:14.479Z,99835.81
2022-12-23T18:48:41.120Z,99840.13
2022-12-23T18:51:08.458Z,99834.84
2022-12-23T18:53:35.033Z,99831.28
2022-12-23T18:56:01.563Z,99820.16
2022-12-23T18:58:28.110Z,99818.41
2022-12-23T19:00:54.877Z,99821.75
2022-12-23T19:03:23.592Z,99827.78
2022-12-23T19:05:51.712Z,99830.31
2022-12-23T19:08:25.558Z,99828.53
2022-12-23T19:10:53.914Z,99823.28
2022-12-23T19:13:20.724Z,99807.81
2022-12-23T19:15:47.273Z,99818.19
2022-12-23T19:18:20.277Z,99819.00
2022-12-23T19:20:48.337Z,99844.75
2022-12-23T19:23:15.690Z,99843.78
2022-12-23T19:25:49.257Z,99830.00
2022-12-23T19:28:21.607Z,99825.59
2022-12-23T19:30:48.590Z,99828.16
2022-12-23T19:33:15.205Z,99828.09
2022-12-23T19:35:42.660Z,99829.75
2022-12-23T19:38:09.975Z,99812.50
2022-12-23T19:40:36.562Z,99792.72
2022-12-23T19:43:03.512Z,99790.09
2022-12-23T19:45:30.054Z,99787.53
2022-12-23T19:47:56.600Z,99797.84
2022-12-23T19:50:23.234Z,99787.53
2022-12-23T19:52:50.679Z,99789.22
2022-12-23T19:55:17.387Z,99784.78
2022-12-23T19:57:43.943Z,99782.06
2022-12-23T20:00:11.330Z,99771.75
2022-12-23T20:02:37.911Z,99773.47
2022-12-23T20:05:05.067Z,99756.22
2022-12-23T20:07:31.655Z,99751.06
2022-12-23T20:09:58.151Z,99740.63
2022-12-23T20:12:26.439Z,99746.59
2022-12-23T20:14:52.983Z,99743.13
2022-12-23T20:17:19.519Z,99739.69
2022-12-23T20:19:46.598Z,99736.16
2022-12-23T20:22:13.966Z,99729.25
2022-12-23T20:24:40.484Z,99739.56
2022-12-23T20:27:11.390Z,99733.47
2022-12-23T20:29:38.501Z,99719.72
2022-12-23T20:32:05.317Z,99725.66
2022-12-23T20:34:38.412Z,99732.50
2022-12-23T20:37:06.205Z,99735.78
2022-12-23T20:39:32.778Z,99735.78
2022-12-23T20:41:59.382Z,99733.16
2022-12-23T20:44:34.891Z,99734.63
2022-12-23T20:47:02.962Z,99732.09
2022-12-23T20:49:29.680Z,99727.06
2022-12-23T20:51:56.243Z,99730.50
2022-12-23T20:54:27.856Z,99726.19
2022-12-23T20:56:58.920Z,99727.06
2022-12-23T20:59:25.505Z,99726.25
2022-12-23T21:01:52.199Z,99720.97
2022-12-23T21:04:19.090Z,99740.06
2022-12-23T21:06:46.308Z,99738.22
2022-12-23T21:09:15.013Z,99732.13
2022-12-23T21:11:45.106Z,99729.44
2022-12-23T21:14:11.735Z,99737.06
2022-12-23T21:16:38.989Z,99723.47
2022-12-23T21:19:07.432Z,99727.63
2022-12-23T21:21:34.087Z,99720.66
2022-12-23T21:24:04.272Z,99704.44
2022-12-23T21:26:33.549Z,99707.78
2022-12-23T21:29:01.894Z,99704.34
2022-12-23T21:31:31.013Z,99700.91
2022-12-23T21:33:58.569Z,99703.97
2022-12-23T21:36:30.926Z,99703.16
2022-12-23T21:38:58.065Z,99691.16
2022-12-23T21:41:29.999Z,99698.00
2022-12-23T21:43:58.155Z,99713.41
2022-12-23T21:46:25.768Z,99717.84
2022-12-23T21:48:52.445Z,99717.75
2022-12-23T21:51:22.943Z,99717.59
2022-12-23T21:53:52.483Z,99722.69
2022-12-23T21:56:24.375Z,99724.44
2022-12-23T21:58:55.080Z,99720.13
2022-12-23T22:01:21.971Z,99734.72
2022-12-23T22:03:50.851Z,99736.41
2022-12-23T22:06:36.739Z,99753.56
2022-12-23T22:09:07.793Z,99755.28
2022-12-23T22:11:36.906Z,99766.38
2022-12-23T22:14:06.111Z,99770.59
2022-12-23T22:16:33.699Z,99776.56
2022-12-23T22:19:02.410Z,99786.88
2022-12-23T22:21:31.178Z,99789.41
2022-12-23T22:23:58.496Z,99801.38
2022-12-23T22:26:28.263Z,99802.25
2022-12-23T22:28:55.755Z,99813.31
2022-12-23T22:31:36.778Z,99811.53
2022-12-23T22:34:04.041Z,99815.81
2022-12-23T22:36:30.895Z,99820.97
2022-12-23T22:38:59.494Z,99823.59
2022-12-23T22:41:28.091Z,99835.50
2022-12-23T22:43:55.029Z,99839.78
2022-12-23T22:46:21.978Z,99838.06
2022-12-23T22:48:48.643Z,99842.31
2022-12-23T22:51:17.889Z,99837.88
2022-12-23T22:53:44.814Z,99848.06
2022-12-23T22:56:13.730Z,99835.03
2022-12-23T22:58:40.653Z,99828.25
2022-12-23T23:01:17.593Z,99829.09
2022-12-23T23:03:44.073Z,99829.00
2022-12-23T23:06:11.459Z,99827.22
2022-12-23T23:08:37.979Z,99824.63
2022-12-23T23:11:05.252Z,99815.34
2022-12-23T23:13:33.841Z,99815.31
2022-12-23T23:16:01.807Z,99801.50
2022-12-23T23:18:29.503Z,99808.25
2022-12-23T23:20:56.133Z,99811.59
2022-12-23T23:23:22.882Z,99808.13
2022-12-23T23:25:49.524Z,99801.34
2022-12-23T23:28:16.605Z,99806.38
2022-12-23T23:30:43.315Z,99799.38
2022-12-23T23:33:10.518Z,99793.41
2022-12-23T23:35:37.205Z,99798.84
2022-12-23T23:38:04.099Z,99801.22
2022-12-23T23:40:30.850Z,99804.63
2022-12-23T23:42:57.415Z,99797.69
2022-12-23T23:45:24.232Z,99795.34
2022-12-23T23:47:50.871Z,99805.31
2022-12-23T23:50:17.613Z,99813.88
2022-12-23T23:52:44.241Z,99807.78
2022-12-23T23:55:10.901Z,99800.16
2022-12-23T23:57:37.984Z,99795.03
